sensor_id;sensor_type;location;lat;lon;timestamp;P1;durP1;ratioP1;P2;durP2;ratioP2
66826;SDS011;53727;45.242;19.796;2022-08-14T00:01:42;11.48;;;8.45;;
66826;SDS011;53727;45.242;19.796;2022-08-14T00:04:07;11.68;;;8.35;;
66826;SDS011;53727;45.242;19.796;2022-08-14T00:06:34;8.57;;;7.60;;
66826;SDS011;53727;45.242;19.796;2022-08-14T00:09:00;9.02;;;8.07;;
66826;SDS011;53727;45.242;19.796;2022-08-14T00:11:26;8.95;;;8.13;;
66826;SDS011;53727;45.242;19.796;2022-08-14T00:13:52;11.73;;;8.13;;
66826;SDS011;53727;45.242;19.796;2022-08-14T00:16:18;8.75;;;7.85;;
66826;SDS011;53727;45.242;19.796;2022-08-14T00:18:44;9.80;;;6.90;;
66826;SDS011;53727;45.242;19.796;2022-08-14T00:21:10;9.70;;;7.35;;
66826;SDS011;53727;45.242;19.796;2022-08-14T00:23:37;8.18;;;7.38;;
66826;SDS011;53727;45.242;19.796;2022-08-14T00:26:03;7.50;;;6.80;;
66826;SDS011;53727;45.242;19.796;2022-08-14T00:28:29;9.95;;;6.57;;
66826;SDS011;53727;45.242;19.796;2022-08-14T00:30:55;7.35;;;6.50;;
66826;SDS011;53727;45.242;19.796;2022-08-14T00:33:24;7.40;;;6.63;;
66826;SDS011;53727;45.242;19.796;2022-08-14T00:35:50;9.77;;;6.47;;
66826;SDS011;53727;45.242;19.796;2022-08-14T00:38:17;6.65;;;5.85;;
66826;SDS011;53727;45.242;19.796;2022-08-14T00:40:43;6.75;;;6.15;;
66826;SDS011;53727;45.242;19.796;2022-08-14T00:43:09;6.95;;;6.38;;
66826;SDS011;53727;45.242;19.796;2022-08-14T00:45:35;7.25;;;5.90;;
66826;SDS011;53727;45.242;19.796;2022-08-14T00:48:02;7.78;;;6.00;;
66826;SDS011;53727;45.242;19.796;2022-08-14T00:50:29;6.85;;;5.85;;
66826;SDS011;53727;45.242;19.796;2022-08-14T00:52:55;6.80;;;5.78;;
66826;SDS011;53727;45.242;19.796;2022-08-14T00:55:27;8.75;;;5.95;;
66826;SDS011;53727;45.242;19.796;2022-08-14T00:57:53;6.68;;;6.07;;
66826;SDS011;53727;45.242;19.796;2022-08-14T01:00:37;6.45;;;5.65;;
66826;SDS011;53727;45.242;19.796;2022-08-14T01:03:05;6.15;;;5.65;;
66826;SDS011;53727;45.242;19.796;2022-08-14T01:05:32;6.07;;;5.53;;
66826;SDS011;53727;45.242;19.796;2022-08-14T01:07:59;6.57;;;5.97;;
66826;SDS011;53727;45.242;19.796;2022-08-14T01:10:26;6.43;;;5.75;;
66826;SDS011;53727;45.242;19.796;2022-08-14T01:13:13;6.20;;;5.63;;
66826;SDS011;53727;45.242;19.796;2022-08-14T01:15:51;7.15;;;6.45;;
66826;SDS011;53727;45.242;19.796;2022-08-14T01:18:19;6.72;;;5.70;;
66826;SDS011;53727;45.242;19.796;2022-08-14T01:21:04;6.03;;;5.43;;
66826;SDS011;53727;45.242;19.796;2022-08-14T01:23:35;6.18;;;5.68;;
66826;SDS011;53727;45.242;19.796;2022-08-14T01:26:09;6.15;;;5.65;;
66826;SDS011;53727;45.242;19.796;2022-08-14T01:28:36;6.55;;;5.88;;
66826;SDS011;53727;45.242;19.796;2022-08-14T01:31:04;7.10;;;6.40;;
66826;SDS011;53727;45.242;19.796;2022-08-14T01:33:34;7.50;;;6.68;;
66826;SDS011;53727;45.242;19.796;2022-08-14T01:36:05;6.80;;;6.22;;
66826;SDS011;53727;45.242;19.796;2022-08-14T01:38:31;6.82;;;6.10;;
66826;SDS011;53727;45.242;19.796;2022-08-14T01:41:02;6.78;;;6.22;;
66826;SDS011;53727;45.242;19.796;2022-08-14T01:43:30;6.97;;;6.38;;
66826;SDS011;53727;45.242;19.796;2022-08-14T01:46:02;6.63;;;6.13;;
66826;SDS011;53727;45.242;19.796;2022-08-14T01:48:30;7.07;;;6.38;;
66826;SDS011;53727;45.242;19.796;2022-08-14T01:50:57;7.53;;;6.65;;
66826;SDS011;53727;45.242;19.796;2022-08-14T01:53:25;7.32;;;6.63;;
66826;SDS011;53727;45.242;19.796;2022-08-14T01:55:53;7.15;;;6.55;;
66826;SDS011;53727;45.242;19.796;2022-08-14T01:58:22;7.18;;;6.57;;
66826;SDS011;53727;45.242;19.796;2022-08-14T02:00:49;8.13;;;7.32;;
66826;SDS011;53727;45.242;19.796;2022-08-14T02:03:18;7.28;;;6.65;;
66826;SDS011;53727;45.242;19.796;2022-08-14T02:05:44;7.90;;;7.10;;
66826;SDS011;53727;45.242;19.796;2022-08-14T02:08:10;7.78;;;7.07;;
66826;SDS011;53727;45.242;19.796;2022-08-14T02:10:40;7.90;;;7.20;;
66826;SDS011;53727;45.242;19.796;2022-08-14T02:13:07;8.35;;;7.55;;
66826;SDS011;53727;45.242;19.796;2022-08-14T02:15:34;8.43;;;7.70;;
66826;SDS011;53727;45.242;19.796;2022-08-14T02:18:00;11.02;;;8.40;;
66826;SDS011;53727;45.242;19.796;2022-08-14T02:20:29;8.65;;;7.85;;
66826;SDS011;53727;45.242;19.796;2022-08-14T02:22:58;8.43;;;7.72;;
66826;SDS011;53727;45.242;19.796;2022-08-14T02:25:24;8.82;;;8.13;;
66826;SDS011;53727;45.242;19.796;2022-08-14T02:27:50;9.00;;;7.85;;
66826;SDS011;53727;45.242;19.796;2022-08-14T02:30:20;10.30;;;7.90;;
66826;SDS011;53727;45.242;19.796;2022-08-14T02:32:46;8.63;;;7.82;;
66826;SDS011;53727;45.242;19.796;2022-08-14T02:35:14;9.23;;;8.43;;
66826;SDS011;53727;45.242;19.796;2022-08-14T02:37:43;9.40;;;8.52;;
66826;SDS011;53727;45.242;19.796;2022-08-14T02:40:09;9.02;;;8.23;;
66826;SDS011;53727;45.242;19.796;2022-08-14T02:42:36;8.98;;;8.18;;
66826;SDS011;53727;45.242;19.796;2022-08-14T02:45:03;9.35;;;8.45;;
66826;SDS011;53727;45.242;19.796;2022-08-14T02:47:30;9.15;;;8.35;;
66826;SDS011;53727;45.242;19.796;2022-08-14T02:49:58;9.43;;;8.63;;
66826;SDS011;53727;45.242;19.796;2022-08-14T02:52:24;9.80;;;8.95;;
66826;SDS011;53727;45.242;19.796;2022-08-14T02:54:51;10.52;;;9.60;;
66826;SDS011;53727;45.242;19.796;2022-08-14T02:57:17;10.30;;;9.23;;
66826;SDS011;53727;45.242;19.796;2022-08-14T02:59:43;9.95;;;9.02;;
66826;SDS011;53727;45.242;19.796;2022-08-14T03:02:10;9.30;;;8.50;;
66826;SDS011;53727;45.242;19.796;2022-08-14T03:04:37;9.25;;;8.48;;
66826;SDS011;53727;45.242;19.796;2022-08-14T03:07:03;8.85;;;8.10;;
66826;SDS011;53727;45.242;19.796;2022-08-14T03:09:29;9.63;;;8.80;;
66826;SDS011;53727;45.242;19.796;2022-08-14T03:11:57;9.10;;;8.23;;
66826;SDS011;53727;45.242;19.796;2022-08-14T03:14:23;9.27;;;8.48;;
66826;SDS011;53727;45.242;19.796;2022-08-14T03:16:50;9.00;;;8.20;;
66826;SDS011;53727;45.242;19.796;2022-08-14T03:19:16;9.20;;;8.32;;
66826;SDS011;53727;45.242;19.796;2022-08-14T03:21:42;9.90;;;8.90;;
66826;SDS011;53727;45.242;19.796;2022-08-14T03:24:08;9.05;;;8.25;;
66826;SDS011;53727;45.242;19.796;2022-08-14T03:26:36;8.45;;;7.80;;
66826;SDS011;53727;45.242;19.796;2022-08-14T03:29:03;8.95;;;7.90;;
66826;SDS011;53727;45.242;19.796;2022-08-14T03:31:29;8.55;;;7.82;;
66826;SDS011;53727;45.242;19.796;2022-08-14T03:33:56;9.93;;;8.63;;
66826;SDS011;53727;45.242;19.796;2022-08-14T03:36:22;8.65;;;7.85;;
66826;SDS011;53727;45.242;19.796;2022-08-14T03:38:49;7.78;;;7.07;;
66826;SDS011;53727;45.242;19.796;2022-08-14T03:41:19;8.10;;;7.30;;
66826;SDS011;53727;45.242;19.796;2022-08-14T03:43:46;9.93;;;7.22;;
66826;SDS011;53727;45.242;19.796;2022-08-14T03:46:13;7.53;;;6.82;;
66826;SDS011;53727;45.242;19.796;2022-08-14T03:48:40;9.02;;;8.13;;
66826;SDS011;53727;45.242;19.796;2022-08-14T03:51:07;7.45;;;6.75;;
66826;SDS011;53727;45.242;19.796;2022-08-14T03:53:34;7.85;;;7.05;;
66826;SDS011;53727;45.242;19.796;2022-08-14T03:56:02;7.38;;;6.72;;
66826;SDS011;53727;45.242;19.796;2022-08-14T03:58:29;7.88;;;7.10;;
66826;SDS011;53727;45.242;19.796;2022-08-14T04:00:57;7.60;;;7.00;;
66826;SDS011;53727;45.242;19.796;2022-08-14T04:03:23;8.23;;;7.43;;
66826;SDS011;53727;45.242;19.796;2022-08-14T04:05:50;8.73;;;7.82;;
66826;SDS011;53727;45.242;19.796;2022-08-14T04:08:17;8.80;;;7.45;;
66826;SDS011;53727;45.242;19.796;2022-08-14T04:10:43;8.25;;;7.32;;
66826;SDS011;53727;45.242;19.796;2022-08-14T04:13:10;7.50;;;6.75;;
66826;SDS011;53727;45.242;19.796;2022-08-14T04:15:36;8.10;;;7.25;;
66826;SDS011;53727;45.242;19.796;2022-08-14T04:18:03;7.75;;;7.05;;
66826;SDS011;53727;45.242;19.796;2022-08-14T04:20:32;8.00;;;7.30;;
66826;SDS011;53727;45.242;19.796;2022-08-14T04:22:58;7.50;;;6.90;;
66826;SDS011;53727;45.242;19.796;2022-08-14T04:25:24;8.80;;;7.78;;
66826;SDS011;53727;45.242;19.796;2022-08-14T04:27:50;7.38;;;6.78;;
66826;SDS011;53727;45.242;19.796;2022-08-14T04:30:16;8.00;;;7.28;;
66826;SDS011;53727;45.242;19.796;2022-08-14T04:32:42;7.50;;;6.90;;
66826;SDS011;53727;45.242;19.796;2022-08-14T04:35:09;7.43;;;6.72;;
66826;SDS011;53727;45.242;19.796;2022-08-14T04:37:35;8.07;;;7.28;;
66826;SDS011;53727;45.242;19.796;2022-08-14T04:40:20;8.13;;;7.43;;
66826;SDS011;53727;45.242;19.796;2022-08-14T04:43:04;7.15;;;6.55;;
66826;SDS011;53727;45.242;19.796;2022-08-14T04:45:49;8.63;;;7.28;;
66826;SDS011;53727;45.242;19.796;2022-08-14T04:48:16;9.65;;;7.18;;
66826;SDS011;53727;45.242;19.796;2022-08-14T04:50:48;7.65;;;6.82;;
66826;SDS011;53727;45.242;19.796;2022-08-14T04:53:16;7.40;;;6.80;;
66826;SDS011;53727;45.242;19.796;2022-08-14T04:55:43;7.55;;;6.80;;
66826;SDS011;53727;45.242;19.796;2022-08-14T04:58:12;7.53;;;6.82;;
66826;SDS011;53727;45.242;19.796;2022-08-14T05:00:38;7.85;;;7.15;;
66826;SDS011;53727;45.242;19.796;2022-08-14T05:03:05;8.25;;;7.43;;
66826;SDS011;53727;45.242;19.796;2022-08-14T05:05:31;7.43;;;6.75;;
66826;SDS011;53727;45.242;19.796;2022-08-14T05:08:06;7.80;;;6.85;;
66826;SDS011;53727;45.242;19.796;2022-08-14T05:10:41;7.38;;;6.78;;
66826;SDS011;53727;45.242;19.796;2022-08-14T05:13:07;9.25;;;8.15;;
66826;SDS011;53727;45.242;19.796;2022-08-14T05:15:35;10.60;;;8.02;;
66826;SDS011;53727;45.242;19.796;2022-08-14T05:18:02;8.48;;;7.78;;
66826;SDS011;53727;45.242;19.796;2022-08-14T05:20:28;8.63;;;7.82;;
66826;SDS011;53727;45.242;19.796;2022-08-14T05:22:54;8.50;;;7.70;;
66826;SDS011;53727;45.242;19.796;2022-08-14T05:25:23;7.80;;;7.10;;
66826;SDS011;53727;45.242;19.796;2022-08-14T05:27:49;8.00;;;7.30;;
66826;SDS011;53727;45.242;19.796;2022-08-14T05:30:15;8.02;;;7.32;;
66826;SDS011;53727;45.242;19.796;2022-08-14T05:32:44;9.45;;;7.53;;
66826;SDS011;53727;45.242;19.796;2022-08-14T05:35:10;7.93;;;7.10;;
66826;SDS011;53727;45.242;19.796;2022-08-14T05:37:36;7.88;;;7.07;;
66826;SDS011;53727;45.242;19.796;2022-08-14T05:40:04;7.70;;;6.95;;
66826;SDS011;53727;45.242;19.796;2022-08-14T05:42:33;8.80;;;8.00;;
66826;SDS011;53727;45.242;19.796;2022-08-14T05:45:00;8.70;;;7.90;;
66826;SDS011;53727;45.242;19.796;2022-08-14T05:47:26;8.95;;;7.30;;
66826;SDS011;53727;45.242;19.796;2022-08-14T05:49:52;7.93;;;7.22;;
66826;SDS011;53727;45.242;19.796;2022-08-14T05:52:18;9.13;;;7.20;;
66826;SDS011;53727;45.242;19.796;2022-08-14T05:54:44;8.63;;;6.78;;
66826;SDS011;53727;45.242;19.796;2022-08-14T05:57:10;7.35;;;6.70;;
66826;SDS011;53727;45.242;19.796;2022-08-14T05:59:36;8.23;;;6.43;;
66826;SDS011;53727;45.242;19.796;2022-08-14T06:02:03;7.68;;;6.82;;
66826;SDS011;53727;45.242;19.796;2022-08-14T06:04:29;8.85;;;6.93;;
66826;SDS011;53727;45.242;19.796;2022-08-14T06:06:55;7.10;;;6.45;;
66826;SDS011;53727;45.242;19.796;2022-08-14T06:09:21;7.13;;;6.18;;
66826;SDS011;53727;45.242;19.796;2022-08-14T06:11:47;13.57;;;6.65;;
66826;SDS011;53727;45.242;19.796;2022-08-14T06:14:13;11.02;;;6.93;;
66826;SDS011;53727;45.242;19.796;2022-08-14T06:16:39;12.05;;;5.75;;
66826;SDS011;53727;45.242;19.796;2022-08-14T06:19:09;7.80;;;6.43;;
66826;SDS011;53727;45.242;19.796;2022-08-14T06:21:35;8.88;;;6.18;;
66826;SDS011;53727;45.242;19.796;2022-08-14T06:24:01;10.10;;;5.95;;
66826;SDS011;53727;45.242;19.796;2022-08-14T06:26:27;7.28;;;5.53;;
66826;SDS011;53727;45.242;19.796;2022-08-14T06:28:53;7.68;;;6.18;;
66826;SDS011;53727;45.242;19.796;2022-08-14T06:31:19;6.90;;;6.20;;
66826;SDS011;53727;45.242;19.796;2022-08-14T06:33:46;6.47;;;5.88;;
66826;SDS011;53727;45.242;19.796;2022-08-14T06:36:16;7.70;;;6.15;;
66826;SDS011;53727;45.242;19.796;2022-08-14T06:38:42;6.22;;;5.63;;
66826;SDS011;53727;45.242;19.796;2022-08-14T06:41:09;7.28;;;6.15;;
66826;SDS011;53727;45.242;19.796;2022-08-14T06:43:35;7.60;;;5.95;;
66826;SDS011;53727;45.242;19.796;2022-08-14T06:46:02;10.18;;;5.90;;
66826;SDS011;53727;45.242;19.796;2022-08-14T06:48:28;7.13;;;5.65;;
66826;SDS011;53727;45.242;19.796;2022-08-14T06:50:55;7.55;;;5.80;;
66826;SDS011;53727;45.242;19.796;2022-08-14T06:53:21;7.75;;;5.25;;
66826;SDS011;53727;45.242;19.796;2022-08-14T06:55:47;8.40;;;4.93;;
66826;SDS011;53727;45.242;19.796;2022-08-14T06:58:16;10.60;;;5.45;;
66826;SDS011;53727;45.242;19.796;2022-08-14T07:00:42;7.47;;;5.30;;
66826;SDS011;53727;45.242;19.796;2022-08-14T07:03:27;10.00;;;5.40;;
66826;SDS011;53727;45.242;19.796;2022-08-14T07:06:13;5.72;;;5.18;;
66826;SDS011;53727;45.242;19.796;2022-08-14T07:08:39;6.72;;;5.13;;
66826;SDS011;53727;45.242;19.796;2022-08-14T07:11:07;6.30;;;5.35;;
66826;SDS011;53727;45.242;19.796;2022-08-14T07:13:33;6.53;;;5.28;;
66826;SDS011;53727;45.242;19.796;2022-08-14T07:16:00;6.18;;;4.82;;
66826;SDS011;53727;45.242;19.796;2022-08-14T07:18:26;7.60;;;5.72;;
66826;SDS011;53727;45.242;19.796;2022-08-14T07:20:53;6.38;;;5.65;;
66826;SDS011;53727;45.242;19.796;2022-08-14T07:23:20;6.63;;;5.35;;
66826;SDS011;53727;45.242;19.796;2022-08-14T07:25:51;8.07;;;6.07;;
66826;SDS011;53727;45.242;19.796;2022-08-14T07:30:50;9.57;;;5.28;;
66826;SDS011;53727;45.242;19.796;2022-08-14T07:33:16;7.88;;;5.72;;
66826;SDS011;53727;45.242;19.796;2022-08-14T07:35:42;11.07;;;6.47;;
66826;SDS011;53727;45.242;19.796;2022-08-14T07:38:15;6.15;;;5.55;;
66826;SDS011;53727;45.242;19.796;2022-08-14T07:40:41;7.22;;;5.47;;
66826;SDS011;53727;45.242;19.796;2022-08-14T07:43:07;7.50;;;5.43;;
66826;SDS011;53727;45.242;19.796;2022-08-14T07:45:34;6.07;;;5.40;;
66826;SDS011;53727;45.242;19.796;2022-08-14T07:48:00;8.13;;;4.93;;
66826;SDS011;53727;45.242;19.796;2022-08-14T07:50:26;5.88;;;5.28;;
66826;SDS011;53727;45.242;19.796;2022-08-14T07:52:52;5.90;;;4.60;;
66826;SDS011;53727;45.242;19.796;2022-08-14T07:55:18;7.80;;;4.90;;
66826;SDS011;53727;45.242;19.796;2022-08-14T07:57:45;7.22;;;4.85;;
66826;SDS011;53727;45.242;19.796;2022-08-14T08:00:16;6.57;;;5.97;;
66826;SDS011;53727;45.242;19.796;2022-08-14T08:02:44;6.63;;;5.65;;
66826;SDS011;53727;45.242;19.796;2022-08-14T08:05:11;5.97;;;5.38;;
66826;SDS011;53727;45.242;19.796;2022-08-14T08:07:38;8.43;;;5.75;;
66826;SDS011;53727;45.242;19.796;2022-08-14T08:10:09;6.10;;;5.50;;
66826;SDS011;53727;45.242;19.796;2022-08-14T08:12:55;8.02;;;5.00;;
66826;SDS011;53727;45.242;19.796;2022-08-14T08:15:22;7.38;;;5.70;;
66826;SDS011;53727;45.242;19.796;2022-08-14T08:17:48;8.50;;;4.70;;
66826;SDS011;53727;45.242;19.796;2022-08-14T08:20:16;6.07;;;5.55;;
66826;SDS011;53727;45.242;19.796;2022-08-14T08:22:43;6.10;;;5.53;;
66826;SDS011;53727;45.242;19.796;2022-08-14T08:25:10;8.65;;;4.97;;
66826;SDS011;53727;45.242;19.796;2022-08-14T08:27:36;7.43;;;5.93;;
66826;SDS011;53727;45.242;19.796;2022-08-14T08:30:06;7.13;;;5.82;;
66826;SDS011;53727;45.242;19.796;2022-08-14T08:32:40;5.80;;;5.30;;
66826;SDS011;53727;45.242;19.796;2022-08-14T08:37:33;7.07;;;5.68;;
66826;SDS011;53727;45.242;19.796;2022-08-14T08:40:00;8.07;;;5.93;;
66826;SDS011;53727;45.242;19.796;2022-08-14T08:42:26;9.82;;;5.97;;
66826;SDS011;53727;45.242;19.796;2022-08-14T08:44:53;10.68;;;6.20;;
66826;SDS011;53727;45.242;19.796;2022-08-14T08:47:19;8.15;;;5.68;;
66826;SDS011;53727;45.242;19.796;2022-08-14T08:49:45;7.47;;;5.63;;
66826;SDS011;53727;45.242;19.796;2022-08-14T08:52:12;7.88;;;5.85;;
66826;SDS011;53727;45.242;19.796;2022-08-14T08:54:38;12.50;;;5.95;;
66826;SDS011;53727;45.242;19.796;2022-08-14T08:57:11;6.00;;;5.50;;
66826;SDS011;53727;45.242;19.796;2022-08-14T08:59:37;8.25;;;5.53;;
66826;SDS011;53727;45.242;19.796;2022-08-14T09:02:04;6.25;;;5.60;;
66826;SDS011;53727;45.242;19.796;2022-08-14T09:04:41;7.55;;;6.10;;
66826;SDS011;53727;45.242;19.796;2022-08-14T09:07:11;7.90;;;5.55;;
66826;SDS011;53727;45.242;19.796;2022-08-14T09:09:38;7.40;;;6.00;;
66826;SDS011;53727;45.242;19.796;2022-08-14T09:12:17;7.47;;;5.68;;
66826;SDS011;53727;45.242;19.796;2022-08-14T09:14:43;6.57;;;5.97;;
66826;SDS011;53727;45.242;19.796;2022-08-14T09:17:13;6.85;;;6.30;;
66826;SDS011;53727;45.242;19.796;2022-08-14T09:19:39;8.05;;;6.43;;
66826;SDS011;53727;45.242;19.796;2022-08-14T09:22:05;8.30;;;5.97;;
66826;SDS011;53727;45.242;19.796;2022-08-14T09:24:31;8.00;;;5.65;;
66826;SDS011;53727;45.242;19.796;2022-08-14T09:26:58;6.70;;;5.95;;
66826;SDS011;53727;45.242;19.796;2022-08-14T09:29:24;6.50;;;5.90;;
66826;SDS011;53727;45.242;19.796;2022-08-14T09:31:54;12.13;;;6.75;;
66826;SDS011;53727;45.242;19.796;2022-08-14T09:47:15;6.60;;;5.93;;
66826;SDS011;53727;45.242;19.796;2022-08-14T09:49:41;8.18;;;5.82;;
66826;SDS011;53727;45.242;19.796;2022-08-14T09:54:44;6.70;;;6.03;;
66826;SDS011;53727;45.242;19.796;2022-08-14T09:57:10;8.07;;;6.40;;
66826;SDS011;53727;45.242;19.796;2022-08-14T09:59:45;6.18;;;5.65;;
66826;SDS011;53727;45.242;19.796;2022-08-14T10:02:27;6.25;;;5.53;;
66826;SDS011;53727;45.242;19.796;2022-08-14T10:04:59;9.20;;;7.10;;
66826;SDS011;53727;45.242;19.796;2022-08-14T10:07:33;7.85;;;6.30;;
66826;SDS011;53727;45.242;19.796;2022-08-14T10:09:59;7.15;;;6.45;;
66826;SDS011;53727;45.242;19.796;2022-08-14T10:12:46;6.78;;;6.15;;
66826;SDS011;53727;45.242;19.796;2022-08-14T10:15:16;6.22;;;5.68;;
66826;SDS011;53727;45.242;19.796;2022-08-14T10:17:43;9.52;;;6.53;;
66826;SDS011;53727;45.242;19.796;2022-08-14T10:20:10;8.85;;;6.47;;
66826;SDS011;53727;45.242;19.796;2022-08-14T10:22:37;12.15;;;7.00;;
66826;SDS011;53727;45.242;19.796;2022-08-14T10:25:13;8.48;;;6.25;;
66826;SDS011;53727;45.242;19.796;2022-08-14T10:27:41;12.00;;;6.80;;
66826;SDS011;53727;45.242;19.796;2022-08-14T10:30:14;9.60;;;6.90;;
66826;SDS011;53727;45.242;19.796;2022-08-14T10:32:44;9.60;;;6.40;;
66826;SDS011;53727;45.242;19.796;2022-08-14T10:35:11;12.55;;;6.25;;
66826;SDS011;53727;45.242;19.796;2022-08-14T10:37:50;8.85;;;6.20;;
66826;SDS011;53727;45.242;19.796;2022-08-14T10:40:29;8.77;;;6.65;;
66826;SDS011;53727;45.242;19.796;2022-08-14T10:42:55;8.27;;;6.18;;
66826;SDS011;53727;45.242;19.796;2022-08-14T10:45:23;7.28;;;6.47;;
66826;SDS011;53727;45.242;19.796;2022-08-14T10:47:50;7.78;;;6.55;;
66826;SDS011;53727;45.242;19.796;2022-08-14T10:50:32;8.50;;;6.85;;
66826;SDS011;53727;45.242;19.796;2022-08-14T10:52:59;10.77;;;6.65;;
66826;SDS011;53727;45.242;19.796;2022-08-14T10:55:36;11.50;;;6.60;;
66826;SDS011;53727;45.242;19.796;2022-08-14T10:58:07;7.20;;;6.50;;
66826;SDS011;53727;45.242;19.796;2022-08-14T11:00:36;9.27;;;6.50;;
66826;SDS011;53727;45.242;19.796;2022-08-14T11:03:07;5.93;;;5.32;;
66826;SDS011;53727;45.242;19.796;2022-08-14T11:05:42;6.22;;;5.70;;
66826;SDS011;53727;45.242;19.796;2022-08-14T11:08:10;13.57;;;6.28;;
66826;SDS011;53727;45.242;19.796;2022-08-14T11:10:44;6.82;;;6.10;;
66826;SDS011;53727;45.242;19.796;2022-08-14T11:13:17;8.85;;;5.63;;
66826;SDS011;53727;45.242;19.796;2022-08-14T11:15:45;7.22;;;6.53;;
66826;SDS011;53727;45.242;19.796;2022-08-14T11:18:13;8.27;;;5.85;;
66826;SDS011;53727;45.242;19.796;2022-08-14T11:20:45;6.57;;;5.53;;
66826;SDS011;53727;45.242;19.796;2022-08-14T11:23:13;7.00;;;5.40;;
66826;SDS011;53727;45.242;19.796;2022-08-14T11:25:42;6.28;;;5.68;;
66826;SDS011;53727;45.242;19.796;2022-08-14T11:28:10;7.05;;;5.95;;
66826;SDS011;53727;45.242;19.796;2022-08-14T11:30:37;12.02;;;6.25;;
66826;SDS011;53727;45.242;19.796;2022-08-14T11:33:05;6.18;;;5.60;;
66826;SDS011;53727;45.242;19.796;2022-08-14T11:35:31;8.55;;;6.53;;
66826;SDS011;53727;45.242;19.796;2022-08-14T11:37:59;8.13;;;6.28;;
66826;SDS011;53727;45.242;19.796;2022-08-14T11:40:26;7.57;;;6.20;;
66826;SDS011;53727;45.242;19.796;2022-08-14T11:42:53;7.15;;;5.20;;
66826;SDS011;53727;45.242;19.796;2022-08-14T11:45:24;10.20;;;5.45;;
66826;SDS011;53727;45.242;19.796;2022-08-14T11:47:51;7.30;;;5.72;;
66826;SDS011;53727;45.242;19.796;2022-08-14T11:50:22;7.57;;;6.30;;
66826;SDS011;53727;45.242;19.796;2022-08-14T11:52:49;12.77;;;6.03;;
66826;SDS011;53727;45.242;19.796;2022-08-14T11:55:19;7.05;;;6.18;;
66826;SDS011;53727;45.242;19.796;2022-08-14T11:57:45;6.82;;;5.85;;
66826;SDS011;53727;45.242;19.796;2022-08-14T12:00:13;9.73;;;6.25;;
66826;SDS011;53727;45.242;19.796;2022-08-14T12:02:52;6.55;;;5.43;;
66826;SDS011;53727;45.242;19.796;2022-08-14T12:05:29;7.60;;;5.15;;
66826;SDS011;53727;45.242;19.796;2022-08-14T12:07:56;10.23;;;5.63;;
66826;SDS011;53727;45.242;19.796;2022-08-14T12:10:22;7.57;;;5.07;;
66826;SDS011;53727;45.242;19.796;2022-08-14T12:12:49;7.95;;;5.00;;
66826;SDS011;53727;45.242;19.796;2022-08-14T12:15:27;8.68;;;4.78;;
66826;SDS011;53727;45.242;19.796;2022-08-14T12:17:53;9.55;;;4.97;;
66826;SDS011;53727;45.242;19.796;2022-08-14T12:20:27;5.97;;;4.53;;
66826;SDS011;53727;45.242;19.796;2022-08-14T12:22:53;7.30;;;5.18;;
66826;SDS011;53727;45.242;19.796;2022-08-14T12:25:21;9.98;;;5.85;;
66826;SDS011;53727;45.242;19.796;2022-08-14T12:27:48;11.30;;;5.60;;
66826;SDS011;53727;45.242;19.796;2022-08-14T12:32:51;6.28;;;5.65;;
66826;SDS011;53727;45.242;19.796;2022-08-14T12:35:17;6.60;;;5.30;;
66826;SDS011;53727;45.242;19.796;2022-08-14T12:37:49;5.53;;;4.90;;
66826;SDS011;53727;45.242;19.796;2022-08-14T12:40:17;7.15;;;5.32;;
66826;SDS011;53727;45.242;19.796;2022-08-14T12:42:47;10.00;;;5.53;;
66826;SDS011;53727;45.242;19.796;2022-08-14T12:45:13;8.00;;;5.95;;
66826;SDS011;53727;45.242;19.796;2022-08-14T12:47:40;6.13;;;5.60;;
66826;SDS011;53727;45.242;19.796;2022-08-14T12:50:07;5.97;;;5.40;;
66826;SDS011;53727;45.242;19.796;2022-08-14T12:52:40;6.45;;;5.35;;
66826;SDS011;53727;45.242;19.796;2022-08-14T12:55:14;6.45;;;5.53;;
66826;SDS011;53727;45.242;19.796;2022-08-14T12:57:45;6.07;;;5.47;;
66826;SDS011;53727;45.242;19.796;2022-08-14T13:02:42;6.97;;;5.22;;
66826;SDS011;53727;45.242;19.796;2022-08-14T13:05:08;5.85;;;4.75;;
66826;SDS011;53727;45.242;19.796;2022-08-14T13:07:36;6.95;;;5.32;;
66826;SDS011;53727;45.242;19.796;2022-08-14T13:10:04;5.65;;;5.15;;
66826;SDS011;53727;45.242;19.796;2022-08-14T13:12:30;10.93;;;5.80;;
66826;SDS011;53727;45.242;19.796;2022-08-14T13:14:57;7.60;;;5.50;;
66826;SDS011;53727;45.242;19.796;2022-08-14T13:17:24;7.82;;;5.38;;
66826;SDS011;53727;45.242;19.796;2022-08-14T13:19:51;4.88;;;4.35;;
66826;SDS011;53727;45.242;19.796;2022-08-14T13:22:18;4.57;;;3.90;;
66826;SDS011;53727;45.242;19.796;2022-08-14T13:24:50;9.68;;;5.65;;
66826;SDS011;53727;45.242;19.796;2022-08-14T13:27:18;7.35;;;4.40;;
66826;SDS011;53727;45.242;19.796;2022-08-14T13:29:45;5.70;;;4.40;;
66826;SDS011;53727;45.242;19.796;2022-08-14T13:32:12;7.20;;;4.18;;
66826;SDS011;53727;45.242;19.796;2022-08-14T13:34:38;5.53;;;4.38;;
66826;SDS011;53727;45.242;19.796;2022-08-14T13:37:05;8.68;;;4.75;;
66826;SDS011;53727;45.242;19.796;2022-08-14T13:39:31;4.82;;;4.43;;
66826;SDS011;53727;45.242;19.796;2022-08-14T13:41:59;7.10;;;4.75;;
66826;SDS011;53727;45.242;19.796;2022-08-14T13:44:28;9.98;;;4.53;;
66826;SDS011;53727;45.242;19.796;2022-08-14T13:47:00;5.45;;;4.95;;
66826;SDS011;53727;45.242;19.796;2022-08-14T13:49:30;5.88;;;4.60;;
66826;SDS011;53727;45.242;19.796;2022-08-14T13:51:56;5.05;;;4.10;;
66826;SDS011;53727;45.242;19.796;2022-08-14T13:54:23;5.00;;;4.50;;
66826;SDS011;53727;45.242;19.796;2022-08-14T13:56:50;5.35;;;4.78;;
66826;SDS011;53727;45.242;19.796;2022-08-14T13:59:16;6.95;;;6.25;;
66826;SDS011;53727;45.242;19.796;2022-08-14T14:01:42;7.40;;;4.72;;
66826;SDS011;53727;45.242;19.796;2022-08-14T14:04:16;6.25;;;4.75;;
66826;SDS011;53727;45.242;19.796;2022-08-14T14:06:43;5.03;;;4.55;;
66826;SDS011;53727;45.242;19.796;2022-08-14T14:09:11;30.75;;;16.45;;
66826;SDS011;53727;45.242;19.796;2022-08-14T14:11:39;5.95;;;5.25;;
66826;SDS011;53727;45.242;19.796;2022-08-14T14:14:06;9.18;;;6.90;;
66826;SDS011;53727;45.242;19.796;2022-08-14T14:16:33;25.33;;;13.02;;
66826;SDS011;53727;45.242;19.796;2022-08-14T14:19:00;9.43;;;6.50;;
66826;SDS011;53727;45.242;19.796;2022-08-14T14:21:28;11.60;;;7.20;;
66826;SDS011;53727;45.242;19.796;2022-08-14T14:23:56;7.82;;;6.78;;
66826;SDS011;53727;45.242;19.796;2022-08-14T14:26:23;10.88;;;7.35;;
66826;SDS011;53727;45.242;19.796;2022-08-14T14:28:52;16.63;;;5.38;;
66826;SDS011;53727;45.242;19.796;2022-08-14T14:31:23;9.98;;;5.35;;
66826;SDS011;53727;45.242;19.796;2022-08-14T14:33:50;5.65;;;5.13;;
66826;SDS011;53727;45.242;19.796;2022-08-14T14:36:17;5.53;;;4.97;;
66826;SDS011;53727;45.242;19.796;2022-08-14T14:38:43;8.32;;;5.68;;
66826;SDS011;53727;45.242;19.796;2022-08-14T14:41:12;5.95;;;4.90;;
66826;SDS011;53727;45.242;19.796;2022-08-14T14:43:41;6.68;;;5.05;;
66826;SDS011;53727;45.242;19.796;2022-08-14T14:46:10;6.32;;;4.70;;
66826;SDS011;53727;45.242;19.796;2022-08-14T14:48:38;6.00;;;4.95;;
66826;SDS011;53727;45.242;19.796;2022-08-14T14:51:08;6.32;;;5.20;;
66826;SDS011;53727;45.242;19.796;2022-08-14T14:53:35;7.22;;;4.85;;
66826;SDS011;53727;45.242;19.796;2022-08-14T14:56:02;8.27;;;5.13;;
66826;SDS011;53727;45.242;19.796;2022-08-14T14:58:29;5.80;;;4.72;;
66826;SDS011;53727;45.242;19.796;2022-08-14T15:00:58;6.55;;;5.18;;
66826;SDS011;53727;45.242;19.796;2022-08-14T15:03:27;6.35;;;5.22;;
66826;SDS011;53727;45.242;19.796;2022-08-14T15:05:53;6.85;;;5.07;;